sensor_id;sensor_type;location;lat;lon;timestamp;P1;durP1;ratioP1;P2;durP2;ratioP2
21621;SDS011;10973;46.706;12.340;2022-07-06T00:06:28;2.60;;;2.17;;
21621;SDS011;10973;46.706;12.340;2022-07-06T00:08:56;2.40;;;2.30;;
21621;SDS011;10973;46.706;12.340;2022-07-06T00:11:24;2.30;;;2.10;;
21621;SDS011;10973;46.706;12.340;2022-07-06T00:22:38;3.17;;;2.30;;
21621;SDS011;10973;46.706;12.340;2022-07-06T00:25:06;2.20;;;2.10;;
21621;SDS011;10973;46.706;12.340;2022-07-06T00:27:33;2.30;;;2.20;;
21621;SDS011;10973;46.706;12.340;2022-07-06T00:34:11;2.10;;;1.93;;
21621;SDS011;10973;46.706;12.340;2022-07-06T00:36:38;2.00;;;1.90;;
21621;SDS011;10973;46.706;12.340;2022-07-06T00:43:02;2.27;;;2.13;;
21621;SDS011;10973;46.706;12.340;2022-07-06T00:45:30;2.83;;;2.37;;
21621;SDS011;10973;46.706;12.340;2022-07-06T00:47:57;2.10;;;2.00;;
21621;SDS011;10973;46.706;12.340;2022-07-06T00:50:24;4.07;;;2.70;;
21621;SDS011;10973;46.706;12.340;2022-07-06T00:52:55;2.33;;;2.20;;
21621;SDS011;10973;46.706;12.340;2022-07-06T00:55:29;2.43;;;2.30;;
21621;SDS011;10973;46.706;12.340;2022-07-06T00:58:00;3.10;;;2.20;;
21621;SDS011;10973;46.706;12.340;2022-07-06T01:00:29;2.43;;;2.33;;
21621;SDS011;10973;46.706;12.340;2022-07-06T01:07:08;2.30;;;2.20;;
21621;SDS011;10973;46.706;12.340;2022-07-06T01:09:35;2.30;;;2.20;;
21621;SDS011;10973;46.706;12.340;2022-07-06T01:12:03;2.23;;;2.07;;
21621;SDS011;10973;46.706;12.340;2022-07-06T01:14:31;2.30;;;2.20;;
21621;SDS011;10973;46.706;12.340;2022-07-06T01:21:09;2.40;;;2.30;;
21621;SDS011;10973;46.706;12.340;2022-07-06T01:23:45;2.50;;;2.10;;
21621;SDS011;10973;46.706;12.340;2022-07-06T01:26:18;4.53;;;2.07;;
21621;SDS011;10973;46.706;12.340;2022-07-06T01:28:51;2.30;;;2.20;;
21621;SDS011;10973;46.706;12.340;2022-07-06T01:35:18;2.10;;;2.00;;
21621;SDS011;10973;46.706;12.340;2022-07-06T01:37:46;2.33;;;2.23;;
21621;SDS011;10973;46.706;12.340;2022-07-06T01:40:13;2.50;;;2.30;;
21621;SDS011;10973;46.706;12.340;2022-07-06T01:42:40;2.47;;;2.30;;
21621;SDS011;10973;46.706;12.340;2022-07-06T01:45:08;2.30;;;2.20;;
21621;SDS011;10973;46.706;12.340;2022-07-06T01:47:36;2.07;;;1.97;;
21621;SDS011;10973;46.706;12.340;2022-07-06T01:50:07;1.90;;;1.90;;
21621;SDS011;10973;46.706;12.340;2022-07-06T01:52:35;2.20;;;2.10;;
21621;SDS011;10973;46.706;12.340;2022-07-06T01:59:13;2.23;;;2.13;;
21621;SDS011;10973;46.706;12.340;2022-07-06T02:01:40;2.33;;;2.13;;
21621;SDS011;10973;46.706;12.340;2022-07-06T02:08:07;2.60;;;2.40;;
21621;SDS011;10973;46.706;12.340;2022-07-06T02:10:34;2.20;;;2.00;;
21621;SDS011;10973;46.706;12.340;2022-07-06T02:13:01;2.30;;;2.20;;
21621;SDS011;10973;46.706;12.340;2022-07-06T02:15:29;2.30;;;2.20;;
21621;SDS011;10973;46.706;12.340;2022-07-06T02:17:56;2.60;;;2.40;;
21621;SDS011;10973;46.706;12.340;2022-07-06T02:28:44;2.17;;;2.07;;
21621;SDS011;10973;46.706;12.340;2022-07-06T02:33:49;3.87;;;2.63;;
21621;SDS011;10973;46.706;12.340;2022-07-06T02:40:27;2.47;;;2.37;;
21621;SDS011;10973;46.706;12.340;2022-07-06T02:46:54;2.53;;;2.43;;
21621;SDS011;10973;46.706;12.340;2022-07-06T02:49:21;3.27;;;2.70;;
21621;SDS011;10973;46.706;12.340;2022-07-06T02:55:59;2.90;;;2.10;;
21621;SDS011;10973;46.706;12.340;2022-07-06T02:58:26;2.23;;;2.17;;
21621;SDS011;10973;46.706;12.340;2022-07-06T03:00:53;2.50;;;2.40;;
21621;SDS011;10973;46.706;12.340;2022-07-06T03:03:21;2.50;;;2.40;;
21621;SDS011;10973;46.706;12.340;2022-07-06T03:09:58;2.77;;;2.47;;
21621;SDS011;10973;46.706;12.340;2022-07-06T03:12:26;2.60;;;2.50;;
21621;SDS011;10973;46.706;12.340;2022-07-06T03:14:53;2.67;;;2.47;;
21621;SDS011;10973;46.706;12.340;2022-07-06T03:17:21;2.97;;;2.77;;
21621;SDS011;10973;46.706;12.340;2022-07-06T03:31:30;2.40;;;2.30;;
21621;SDS011;10973;46.706;12.340;2022-07-06T03:34:07;5.17;;;3.17;;
21621;SDS011;10973;46.706;12.340;2022-07-06T03:36:35;2.47;;;2.27;;
21621;SDS011;10973;46.706;12.340;2022-07-06T03:39:05;2.40;;;2.30;;
21621;SDS011;10973;46.706;12.340;2022-07-06T03:41:33;2.80;;;2.60;;
21621;SDS011;10973;46.706;12.340;2022-07-06T03:44:02;2.50;;;2.40;;
21621;SDS011;10973;46.706;12.340;2022-07-06T03:46:29;2.60;;;2.40;;
21621;SDS011;10973;46.706;12.340;2022-07-06T03:48:57;2.53;;;2.33;;
21621;SDS011;10973;46.706;12.340;2022-07-06T03:51:24;2.53;;;2.43;;
21621;SDS011;10973;46.706;12.340;2022-07-06T03:53:52;2.57;;;2.43;;
21621;SDS011;10973;46.706;12.340;2022-07-06T03:56:22;2.53;;;2.43;;
21621;SDS011;10973;46.706;12.340;2022-07-06T03:58:50;2.60;;;2.50;;
21621;SDS011;10973;46.706;12.340;2022-07-06T04:04:50;2.37;;;2.27;;
21621;SDS011;10973;46.706;12.340;2022-07-06T04:07:17;3.00;;;2.63;;
21621;SDS011;10973;46.706;12.340;2022-07-06T04:09:45;3.23;;;2.53;;
21621;SDS011;10973;46.706;12.340;2022-07-06T04:12:12;2.90;;;2.70;;
21621;SDS011;10973;46.706;12.340;2022-07-06T04:14:42;3.10;;;2.30;;
21621;SDS011;10973;46.706;12.340;2022-07-06T04:17:10;2.60;;;2.50;;
21621;SDS011;10973;46.706;12.340;2022-07-06T04:19:38;3.23;;;2.93;;
21621;SDS011;10973;46.706;12.340;2022-07-06T04:22:06;2.53;;;2.40;;
21621;SDS011;10973;46.706;12.340;2022-07-06T04:24:35;3.10;;;2.90;;
21621;SDS011;10973;46.706;12.340;2022-07-06T04:30:54;4.17;;;3.87;;
21621;SDS011;10973;46.706;12.340;2022-07-06T04:33:22;4.23;;;3.50;;
21621;SDS011;10973;46.706;12.340;2022-07-06T04:43:03;3.73;;;3.43;;
21621;SDS011;10973;46.706;12.340;2022-07-06T04:45:31;4.73;;;3.50;;
21621;SDS011;10973;46.706;12.340;2022-07-06T04:47:58;5.67;;;3.83;;
21621;SDS011;10973;46.706;12.340;2022-07-06T04:50:26;4.93;;;4.37;;
21621;SDS011;10973;46.706;12.340;2022-07-06T04:59:35;3.37;;;3.17;;
21621;SDS011;10973;46.706;12.340;2022-07-06T05:05:44;3.87;;;3.50;;
21621;SDS011;10973;46.706;12.340;2022-07-06T05:08:12;4.20;;;3.80;;
21621;SDS011;10973;46.706;12.340;2022-07-06T05:10:39;4.10;;;3.80;;
21621;SDS011;10973;46.706;12.340;2022-07-06T05:13:07;5.00;;;3.80;;
21621;SDS011;10973;46.706;12.340;2022-07-06T05:15:35;4.10;;;3.80;;
21621;SDS011;10973;46.706;12.340;2022-07-06T05:18:03;4.60;;;3.77;;
21621;SDS011;10973;46.706;12.340;2022-07-06T05:26:34;7.67;;;3.50;;
21621;SDS011;10973;46.706;12.340;2022-07-06T05:29:02;4.97;;;3.73;;
21621;SDS011;10973;46.706;12.340;2022-07-06T05:31:30;4.57;;;3.83;;
21621;SDS011;10973;46.706;12.340;2022-07-06T05:33:57;4.50;;;3.70;;
21621;SDS011;10973;46.706;12.340;2022-07-06T05:36:25;4.13;;;3.30;;
21621;SDS011;10973;46.706;12.340;2022-07-06T05:38:56;3.70;;;3.50;;
21621;SDS011;10973;46.706;12.340;2022-07-06T05:41:24;10.47;;;3.87;;
21621;SDS011;10973;46.706;12.340;2022-07-06T05:43:57;9.17;;;4.40;;
21621;SDS011;10973;46.706;12.340;2022-07-06T05:46:24;16.43;;;4.83;;
21621;SDS011;10973;46.706;12.340;2022-07-06T05:48:52;8.10;;;4.33;;
21621;SDS011;10973;46.706;12.340;2022-07-06T05:51:20;7.23;;;4.07;;
21621;SDS011;10973;46.706;12.340;2022-07-06T05:53:47;5.93;;;4.57;;
21621;SDS011;10973;46.706;12.340;2022-07-06T05:56:14;4.10;;;3.70;;
21621;SDS011;10973;46.706;12.340;2022-07-06T05:58:41;4.00;;;3.47;;
21621;SDS011;10973;46.706;12.340;2022-07-06T06:01:09;3.70;;;3.40;;
21621;SDS011;10973;46.706;12.340;2022-07-06T06:03:36;4.23;;;3.90;;
21621;SDS011;10973;46.706;12.340;2022-07-06T06:06:04;4.93;;;3.70;;
21621;SDS011;10973;46.706;12.340;2022-07-06T06:08:32;3.20;;;2.90;;
21621;SDS011;10973;46.706;12.340;2022-07-06T06:10:59;3.60;;;3.17;;
21621;SDS011;10973;46.706;12.340;2022-07-06T06:13:31;3.50;;;3.20;;
21621;SDS011;10973;46.706;12.340;2022-07-06T06:15:58;3.33;;;3.10;;
21621;SDS011;10973;46.706;12.340;2022-07-06T06:18:25;3.63;;;3.13;;
21621;SDS011;10973;46.706;12.340;2022-07-06T06:20:53;3.40;;;3.03;;
21621;SDS011;10973;46.706;12.340;2022-07-06T06:23:21;3.47;;;3.10;;
21621;SDS011;10973;46.706;12.340;2022-07-06T06:25:48;8.90;;;4.00;;
21621;SDS011;10973;46.706;12.340;2022-07-06T06:28:15;3.67;;;3.37;;
21621;SDS011;10973;46.706;12.340;2022-07-06T06:30:42;4.57;;;3.67;;
21621;SDS011;10973;46.706;12.340;2022-07-06T06:33:10;2.83;;;2.63;;
21621;SDS011;10973;46.706;12.340;2022-07-06T06:35:47;3.47;;;2.73;;
21621;SDS011;10973;46.706;12.340;2022-07-06T06:38:19;3.27;;;3.07;;
21621;SDS011;10973;46.706;12.340;2022-07-06T06:40:49;3.10;;;2.90;;
21621;SDS011;10973;46.706;12.340;2022-07-06T06:43:16;2.73;;;2.53;;
21621;SDS011;10973;46.706;12.340;2022-07-06T06:45:44;3.23;;;2.93;;
21621;SDS011;10973;46.706;12.340;2022-07-06T06:48:11;2.87;;;2.67;;
21621;SDS011;10973;46.706;12.340;2022-07-06T06:50:43;3.17;;;2.97;;
21621;SDS011;10973;46.706;12.340;2022-07-06T06:53:11;3.23;;;2.87;;
21621;SDS011;10973;46.706;12.340;2022-07-06T06:55:39;3.03;;;2.70;;
21621;SDS011;10973;46.706;12.340;2022-07-06T06:58:06;2.70;;;2.47;;
21621;SDS011;10973;46.706;12.340;2022-07-06T07:00:33;2.30;;;2.20;;
21621;SDS011;10973;46.706;12.340;2022-07-06T07:03:01;2.20;;;2.00;;
21621;SDS011;10973;46.706;12.340;2022-07-06T07:05:28;3.30;;;2.33;;
21621;SDS011;10973;46.706;12.340;2022-07-06T07:07:56;2.23;;;2.07;;
21621;SDS011;10973;46.706;12.340;2022-07-06T07:10:30;2.50;;;2.30;;
21621;SDS011;10973;46.706;12.340;2022-07-06T07:12:59;2.40;;;2.20;;
21621;SDS011;10973;46.706;12.340;2022-07-06T07:15:27;2.60;;;2.40;;
21621;SDS011;10973;46.706;12.340;2022-07-06T07:17:55;6.87;;;2.30;;
21621;SDS011;10973;46.706;12.340;2022-07-06T07:20:22;2.50;;;2.40;;
21621;SDS011;10973;46.706;12.340;2022-07-06T07:22:50;2.73;;;2.37;;
21621;SDS011;10973;46.706;12.340;2022-07-06T07:25:18;2.37;;;2.27;;
21621;SDS011;10973;46.706;12.340;2022-07-06T07:27:46;2.40;;;2.20;;
21621;SDS011;10973;46.706;12.340;2022-07-06T07:30:13;2.50;;;2.30;;
21621;SDS011;10973;46.706;12.340;2022-07-06T07:32:41;2.30;;;2.20;;
21621;SDS011;10973;46.706;12.340;2022-07-06T07:35:08;2.30;;;2.20;;
21621;SDS011;10973;46.706;12.340;2022-07-06T07:37:36;2.10;;;2.10;;
21621;SDS011;10973;46.706;12.340;2022-07-06T07:40:04;2.80;;;2.10;;
21621;SDS011;10973;46.706;12.340;2022-07-06T07:42:32;2.53;;;2.43;;
21621;SDS011;10973;46.706;12.340;2022-07-06T07:44:59;3.13;;;2.20;;
21621;SDS011;10973;46.706;12.340;2022-07-06T07:47:27;2.20;;;2.10;;
21621;SDS011;10973;46.706;12.340;2022-07-06T07:49:54;2.10;;;2.00;;
21621;SDS011;10973;46.706;12.340;2022-07-06T07:52:22;2.20;;;2.00;;
21621;SDS011;10973;46.706;12.340;2022-07-06T07:54:49;2.40;;;1.90;;
21621;SDS011;10973;46.706;12.340;2022-07-06T07:57:37;2.33;;;2.20;;
21621;SDS011;10973;46.706;12.340;2022-07-06T08:00:05;2.30;;;2.10;;
21621;SDS011;10973;46.706;12.340;2022-07-06T08:02:33;2.10;;;1.90;;
21621;SDS011;10973;46.706;12.340;2022-07-06T08:05:01;1.60;;;1.60;;
21621;SDS011;10973;46.706;12.340;2022-07-06T08:07:29;1.60;;;1.50;;
21621;SDS011;10973;46.706;12.340;2022-07-06T08:09:57;1.70;;;1.60;;
21621;SDS011;10973;46.706;12.340;2022-07-06T08:12:24;2.87;;;1.60;;
21621;SDS011;10973;46.706;12.340;2022-07-06T08:14:52;1.60;;;1.53;;
21621;SDS011;10973;46.706;12.340;2022-07-06T08:17:20;1.57;;;1.47;;
21621;SDS011;10973;46.706;12.340;2022-07-06T08:19:47;1.80;;;1.70;;
21621;SDS011;10973;46.706;12.340;2022-07-06T08:22:15;1.70;;;1.60;;
21621;SDS011;10973;46.706;12.340;2022-07-06T08:24:43;1.23;;;1.23;;
21621;SDS011;10973;46.706;12.340;2022-07-06T08:27:10;1.40;;;1.40;;
21621;SDS011;10973;46.706;12.340;2022-07-06T08:29:38;1.40;;;1.40;;
21621;SDS011;10973;46.706;12.340;2022-07-06T08:32:06;1.50;;;1.40;;
21621;SDS011;10973;46.706;12.340;2022-07-06T08:34:53;1.40;;;1.30;;
21621;SDS011;10973;46.706;12.340;2022-07-06T08:37:20;6.63;;;2.20;;
21621;SDS011;10973;46.706;12.340;2022-07-06T08:39:47;1.60;;;1.50;;
21621;SDS011;10973;46.706;12.340;2022-07-06T08:42:15;2.13;;;1.60;;
21621;SDS011;10973;46.706;12.340;2022-07-06T08:44:44;5.07;;;1.50;;
21621;SDS011;10973;46.706;12.340;2022-07-06T08:47:12;1.50;;;1.40;;
21621;SDS011;10973;46.706;12.340;2022-07-06T08:49:41;1.80;;;1.70;;
21621;SDS011;10973;46.706;12.340;2022-07-06T08:52:09;1.67;;;1.57;;
21621;SDS011;10973;46.706;12.340;2022-07-06T08:54:38;2.73;;;1.50;;
21621;SDS011;10973;46.706;12.340;2022-07-06T08:57:06;1.70;;;1.50;;
21621;SDS011;10973;46.706;12.340;2022-07-06T08:59:34;2.20;;;1.90;;
21621;SDS011;10973;46.706;12.340;2022-07-06T09:02:02;1.30;;;1.30;;
21621;SDS011;10973;46.706;12.340;2022-07-06T09:04:32;1.73;;;1.63;;
21621;SDS011;10973;46.706;12.340;2022-07-06T09:07:02;1.77;;;1.45;;
21621;SDS011;10973;46.706;12.340;2022-07-06T09:09:30;2.80;;;1.90;;
21621;SDS011;10973;46.706;12.340;2022-07-06T09:11:58;2.07;;;1.30;;
21621;SDS011;10973;46.706;12.340;2022-07-06T09:14:29;8.07;;;2.03;;
21621;SDS011;10973;46.706;12.340;2022-07-06T09:17:01;2.40;;;1.73;;
21621;SDS011;10973;46.706;12.340;2022-07-06T09:19:32;2.53;;;1.60;;
21621;SDS011;10973;46.706;12.340;2022-07-06T09:22:01;1.57;;;1.47;;
21621;SDS011;10973;46.706;12.340;2022-07-06T09:24:30;2.63;;;1.60;;
21621;SDS011;10973;46.706;12.340;2022-07-06T09:26:58;1.48;;;1.48;;
21621;SDS011;10973;46.706;12.340;2022-07-06T09:29:28;1.40;;;1.40;;
21621;SDS011;10973;46.706;12.340;2022-07-06T09:32:01;1.30;;;1.20;;
21621;SDS011;10973;46.706;12.340;2022-07-06T09:34:39;6.03;;;1.60;;
21621;SDS011;10973;46.706;12.340;2022-07-06T09:37:08;1.60;;;1.50;;
21621;SDS011;10973;46.706;12.340;2022-07-06T09:39:35;1.50;;;1.50;;
21621;SDS011;10973;46.706;12.340;2022-07-06T09:42:03;2.47;;;1.60;;
21621;SDS011;10973;46.706;12.340;2022-07-06T09:44:33;2.00;;;1.65;;
21621;SDS011;10973;46.706;12.340;2022-07-06T09:47:05;1.50;;;1.40;;
21621;SDS011;10973;46.706;12.340;2022-07-06T09:49:35;1.30;;;1.20;;
21621;SDS011;10973;46.706;12.340;2022-07-06T09:52:05;1.40;;;1.40;;
21621;SDS011;10973;46.706;12.340;2022-07-06T09:54:35;1.45;;;1.30;;
21621;SDS011;10973;46.706;12.340;2022-07-06T09:57:05;1.40;;;1.40;;
21621;SDS011;10973;46.706;12.340;2022-07-06T09:59:35;1.40;;;1.30;;
21621;SDS011;10973;46.706;12.340;2022-07-06T10:02:04;1.50;;;1.40;;
21621;SDS011;10973;46.706;12.340;2022-07-06T10:04:34;1.42;;;1.42;;
21621;SDS011;10973;46.706;12.340;2022-07-06T10:07:02;1.55;;;1.50;;
21621;SDS011;10973;46.706;12.340;2022-07-06T10:09:30;1.50;;;1.50;;
21621;SDS011;10973;46.706;12.340;2022-07-06T10:11:59;1.20;;;1.20;;
21621;SDS011;10973;46.706;12.340;2022-07-06T10:14:31;1.27;;;1.27;;
21621;SDS011;10973;46.706;12.340;2022-07-06T10:17:01;1.52;;;1.52;;
21621;SDS011;10973;46.706;12.340;2022-07-06T10:19:30;1.38;;;1.27;;
21621;SDS011;10973;46.706;12.340;2022-07-06T10:21:59;1.55;;;1.45;;
21621;SDS011;10973;46.706;12.340;2022-07-06T10:24:31;1.50;;;1.50;;
21621;SDS011;10973;46.706;12.340;2022-07-06T10:26:58;1.65;;;1.40;;
21621;SDS011;10973;46.706;12.340;2022-07-06T10:29:26;1.48;;;1.48;;
21621;SDS011;10973;46.706;12.340;2022-07-06T10:31:56;3.72;;;1.50;;
21621;SDS011;10973;46.706;12.340;2022-07-06T10:34:25;3.20;;;1.20;;
21621;SDS011;10973;46.706;12.340;2022-07-06T10:36:53;1.48;;;1.45;;
21621;SDS011;10973;46.706;12.340;2022-07-06T10:39:34;1.55;;;1.40;;
21621;SDS011;10973;46.706;12.340;2022-07-06T10:42:04;1.58;;;1.40;;
21621;SDS011;10973;46.706;12.340;2022-07-06T10:44:31;1.40;;;1.40;;
21621;SDS011;10973;46.706;12.340;2022-07-06T10:46:58;1.42;;;1.42;;
21621;SDS011;10973;46.706;12.340;2022-07-06T10:49:26;1.42;;;1.33;;
21621;SDS011;10973;46.706;12.340;2022-07-06T10:52:17;1.60;;;1.60;;
21621;SDS011;10973;46.706;12.340;2022-07-06T10:54:44;1.40;;;1.40;;
21621;SDS011;10973;46.706;12.340;2022-07-06T10:57:13;1.85;;;1.60;;
21621;SDS011;10973;46.706;12.340;2022-07-06T10:59:41;1.60;;;1.50;;
21621;SDS011;10973;46.706;12.340;2022-07-06T11:02:37;1.60;;;1.50;;
21621;SDS011;10973;46.706;12.340;2022-07-06T11:05:10;1.30;;;1.30;;
21621;SDS011;10973;46.706;12.340;2022-07-06T11:08:17;1.33;;;1.30;;
21621;SDS011;10973;46.706;12.340;2022-07-06T11:10:48;1.20;;;1.20;;
21621;SDS011;10973;46.706;12.340;2022-07-06T11:13:26;1.60;;;1.50;;
21621;SDS011;10973;46.706;12.340;2022-07-06T11:16:05;2.28;;;1.40;;
21621;SDS011;10973;46.706;12.340;2022-07-06T11:18:39;1.27;;;1.27;;
21621;SDS011;10973;46.706;12.340;2022-07-06T11:21:20;1.60;;;1.50;;
21621;SDS011;10973;46.706;12.340;2022-07-06T11:23:50;1.30;;;1.30;;
21621;SDS011;10973;46.706;12.340;2022-07-06T11:26:17;2.28;;;1.50;;
21621;SDS011;10973;46.706;12.340;2022-07-06T11:28:46;5.07;;;1.50;;
21621;SDS011;10973;46.706;12.340;2022-07-06T11:31:14;1.50;;;1.40;;
21621;SDS011;10973;46.706;12.340;2022-07-06T11:33:44;1.33;;;1.33;;
21621;SDS011;10973;46.706;12.340;2022-07-06T11:38:46;1.45;;;1.40;;
21621;SDS011;10973;46.706;12.340;2022-07-06T11:41:16;5.57;;;1.58;;
21621;SDS011;10973;46.706;12.340;2022-07-06T11:43:45;1.20;;;1.20;;
21621;SDS011;10973;46.706;12.340;2022-07-06T11:46:18;1.40;;;1.40;;
21621;SDS011;10973;46.706;12.340;2022-07-06T11:49:03;1.70;;;1.60;;
21621;SDS011;10973;46.706;12.340;2022-07-06T11:51:34;1.33;;;1.33;;
21621;SDS011;10973;46.706;12.340;2022-07-06T11:54:10;2.63;;;1.30;;
21621;SDS011;10973;46.706;12.340;2022-07-06T11:56:46;1.20;;;1.20;;
21621;SDS011;10973;46.706;12.340;2022-07-06T11:59:22;1.20;;;1.20;;
21621;SDS011;10973;46.706;12.340;2022-07-06T12:01:59;1.17;;;1.17;;
21621;SDS011;10973;46.706;12.340;2022-07-06T12:04:38;1.67;;;1.42;;
21621;SDS011;10973;46.706;12.340;2022-07-06T12:07:08;2.10;;;1.35;;
21621;SDS011;10973;46.706;12.340;2022-07-06T12:09:38;1.35;;;1.35;;
21621;SDS011;10973;46.706;12.340;2022-07-06T12:12:09;1.20;;;1.20;;
21621;SDS011;10973;46.706;12.340;2022-07-06T12:14:38;1.35;;;1.35;;
21621;SDS011;10973;46.706;12.340;2022-07-06T12:17:08;1.60;;;1.50;;
21621;SDS011;10973;46.706;12.340;2022-07-06T12:19:38;1.60;;;1.50;;
21621;SDS011;10973;46.706;12.340;2022-07-06T12:22:07;8.60;;;2.28;;
21621;SDS011;10973;46.706;12.340;2022-07-06T12:24:37;1.40;;;1.20;;
21621;SDS011;10973;46.706;12.340;2022-07-06T12:27:09;1.13;;;1.13;;
21621;SDS011;10973;46.706;12.340;2022-07-06T12:29:38;3.05;;;1.50;;
21621;SDS011;10973;46.706;12.340;2022-07-06T12:32:06;2.28;;;1.40;;
21621;SDS011;10973;46.706;12.340;2022-07-06T12:34:41;1.67;;;1.20;;
21621;SDS011;10973;46.706;12.340;2022-07-06T12:37:09;1.33;;;1.33;;
21621;SDS011;10973;46.706;12.340;2022-07-06T12:39:44;1.38;;;1.38;;
21621;SDS011;10973;46.706;12.340;2022-07-06T12:42:14;1.40;;;1.40;;
21621;SDS011;10973;46.706;12.340;2022-07-06T12:44:47;12.07;;;1.67;;
21621;SDS011;10973;46.706;12.340;2022-07-06T12:47:17;1.48;;;1.38;;
21621;SDS011;10973;46.706;12.340;2022-07-06T12:50:03;1.20;;;1.20;;
21621;SDS011;10973;46.706;12.340;2022-07-06T12:52:36;1.40;;;1.38;;
21621;SDS011;10973;46.706;12.340;2022-07-06T12:55:04;1.50;;;1.50;;
21621;SDS011;10973;46.706;12.340;2022-07-06T12:57:47;1.30;;;1.30;;
21621;SDS011;10973;46.706;12.340;2022-07-06T13:00:16;1.70;;;1.60;;
21621;SDS011;10973;46.706;12.340;2022-07-06T13:02:45;1.60;;;1.50;;
21621;SDS011;10973;46.706;12.340;2022-07-06T13:05:34;1.45;;;1.45;;
21621;SDS011;10973;46.706;12.340;2022-07-06T13:08:02;1.48;;;1.33;;
21621;SDS011;10973;46.706;12.340;2022-07-06T13:10:29;2.53;;;1.50;;
21621;SDS011;10973;46.706;12.340;2022-07-06T13:12:57;2.92;;;1.55;;
21621;SDS011;10973;46.706;12.340;2022-07-06T13:15:25;2.22;;;1.40;;
21621;SDS011;10973;46.706;12.340;2022-07-06T13:17:52;2.58;;;1.30;;
21621;SDS011;10973;46.706;12.340;2022-07-06T13:20:19;2.25;;;1.50;;
21621;SDS011;10973;46.706;12.340;2022-07-06T13:22:46;1.48;;;1.40;;
21621;SDS011;10973;46.706;12.340;2022-07-06T13:25:14;1.67;;;1.50;;
21621;SDS011;10973;46.706;12.340;2022-07-06T13:27:41;3.17;;;1.50;;
21621;SDS011;10973;46.706;12.340;2022-07-06T13:30:08;3.15;;;1.67;;
21621;SDS011;10973;46.706;12.340;2022-07-06T13:35:33;3.63;;;1.40;;
21621;SDS011;10973;46.706;12.340;2022-07-06T13:38:00;1.30;;;1.30;;
21621;SDS011;10973;46.706;12.340;2022-07-06T13:40:27;1.40;;;1.40;;
21621;SDS011;10973;46.706;12.340;2022-07-06T13:42:54;1.90;;;1.40;;
21621;SDS011;10973;46.706;12.340;2022-07-06T13:45:22;1.60;;;1.50;;
21621;SDS011;10973;46.706;12.340;2022-07-06T13:47:49;1.33;;;1.30;;
21621;SDS011;10973;46.706;12.340;2022-07-06T13:50:16;1.20;;;1.20;;
21621;SDS011;10973;46.706;12.340;2022-07-06T13:52:43;1.40;;;1.40;;
21621;SDS011;10973;46.706;12.340;2022-07-06T13:55:10;1.60;;;1.50;;
21621;SDS011;10973;46.706;12.340;2022-07-06T13:57:38;1.65;;;1.30;;
21621;SDS011;10973;46.706;12.340;2022-07-06T14:00:06;1.33;;;1.33;;
21621;SDS011;10973;46.706;12.340;2022-07-06T14:02:34;1.63;;;1.60;;
21621;SDS011;10973;46.706;12.340;2022-07-06T14:05:01;1.42;;;1.40;;
21621;SDS011;10973;46.706;12.340;2022-07-06T14:07:29;1.95;;;1.35;;
21621;SDS011;10973;46.706;12.340;2022-07-06T14:09:57;1.50;;;1.40;;
21621;SDS011;10973;46.706;12.340;2022-07-06T14:12:24;1.40;;;1.40;;
21621;SDS011;10973;46.706;12.340;2022-07-06T14:14:52;1.30;;;1.30;;
21621;SDS011;10973;46.706;12.340;2022-07-06T14:17:19;1.45;;;1.40;;
21621;SDS011;10973;46.706;12.340;2022-07-06T14:19:48;1.30;;;1.30;;
21621;SDS011;10973;46.706;12.340;2022-07-06T14:22:16;2.95;;;1.40;;
21621;SDS011;10973;46.706;12.340;2022-07-06T14:24:43;1.58;;;1.55;;
21621;SDS011;10973;46.706;12.340;2022-07-06T14:27:10;1.63;;;1.52;;
21621;SDS011;10973;46.706;12.340;2022-07-06T14:29:38;1.27;;;1.27;;
21621;SDS011;10973;46.706;12.340;2022-07-06T14:32:05;1.65;;;1.50;;
21621;SDS011;10973;46.706;12.340;2022-07-06T14:34:32;2.13;;;1.65;;
21621;SDS011;10973;46.706;12.340;2022-07-06T14:37:00;1.42;;;1.42;;
21621;SDS011;10973;46.706;12.340;2022-07-06T14:39:27;1.90;;;1.52;;
21621;SDS011;10973;46.706;12.340;2022-07-06T14:41:54;4.95;;;1.60;;
21621;SDS011;10973;46.706;12.340;2022-07-06T14:44:21;1.50;;;1.40;;
21621;SDS011;10973;46.706;12.340;2022-07-06T14:46:49;4.68;;;1.85;;
21621;SDS011;10973;46.706;12.340;2022-07-06T14:49:16;1.30;;;1.30;;
21621;SDS011;10973;46.706;12.340;2022-07-06T14:51:46;2.30;;;1.50;;
21621;SDS011;10973;46.706;12.340;2022-07-06T14:54:15;3.28;;;1.50;;
21621;SDS011;10973;46.706;12.340;2022-07-06T14:56:42;1.85;;;1.70;;
21621;SDS011;10973;46.706;12.340;2022-07-06T14:59:10;3.75;;;1.90;;
21621;SDS011;10973;46.706;12.340;2022-07-06T15:01:52;3.35;;;1.77;;
21621;SDS011;10973;46.706;12.340;2022-07-06T15:04:20;1.70;;;1.60;;
21621;SDS011;10973;46.706;12.340;2022-07-06T15:06:48;1.67;;;1.58;;
21621;SDS011;10973;46.706;12.340;2022-07-06T15:09:20;3.40;;;1.40;;
21621;SDS011;10973;46.706;12.340;2022-07-06T15:11:47;21.48;;;3.50;;
21621;SDS011;10973;46.706;12.340;2022-07-06T15:14:15;3.33;;;1.70;;
21621;SDS011;10973;46.706;12.340;2022-07-06T15:16:45;1.40;;;1.40;;
21621;SDS011;10973;46.706;12.340;2022-07-06T15:19:16;2.15;;;1.50;;
21621;SDS011;10973;46.706;12.340;2022-07-06T15:21:43;2.08;;;1.50;;
21621;SDS011;10973;46.706;12.340;2022-07-06T15:24:11;1.40;;;1.40;;
21621;SDS011;10973;46.706;12.340;2022-07-06T15:26:47;25.65;;;3.75;;
21621;SDS011;10973;46.706;12.340;2022-07-06T15:29:17;1.70;;;1.60;;
21621;SDS011;10973;46.706;12.340;2022-07-06T15:31:45;72.32;;;7.75;;
21621;SDS011;10973;46.706;12.340;2022-07-06T15:34:14;5.35;;;2.00;;
21621;SDS011;10973;46.706;12.340;2022-07-06T15:36:51;21.92;;;3.45;;
21621;SDS011;10973;46.706;12.340;2022-07-06T15:39:19;32.97;;;4.30;;
21621;SDS011;10973;46.706;12.340;2022-07-06T15:41:46;2.95;;;2.17;;
21621;SDS011;10973;46.706;12.340;2022-07-06T15:44:13;5.32;;;2.05;;
21621;SDS011;10973;46.706;12.340;2022-07-06T15:46:41;1.50;;;1.40;;
21621;SDS011;10973;46.706;12.340;2022-07-06T15:49:09;1.33;;;1.27;;
21621;SDS011;10973;46.706;12.340;2022-07-06T15:54:43;1.70;;;1.60;;
21621;SDS011;10973;46.706;12.340;2022-07-06T15:57:10;1.80;;;1.35;;
21621;SDS011;10973;46.706;12.340;2022-07-06T15:59:39;2.90;;;1.70;;
21621;SDS011;10973;46.706;12.340;2022-07-06T16:02:06;12.48;;;2.13;;
21621;SDS011;10973;46.706;12.340;2022-07-06T16:04:35;1.60;;;1.50;;
21621;SDS011;10973;46.706;12.340;2022-07-06T16:07:03;1.75;;;1.33;;
21621;SDS011;10973;46.706;12.340;2022-07-06T16:09:50;1.67;;;1.58;;
21621;SDS011;10973;46.706;12.340;2022-07-06T16:12:17;2.08;;;1.75;;
21621;SDS011;10973;46.706;12.340;2022-07-06T16:14:48;3.13;;;1.83;;
21621;SDS011;10973;46.706;12.340;2022-07-06T16:17:15;4.68;;;2.58;;
21621;SDS011;10973;46.706;12.340;2022-07-06T16:19:42;3.00;;;1.70;;
21621;SDS011;10973;46.706;12.340;2022-07-06T16:22:12;2.45;;;1.58;;
21621;SDS011;10973;46.706;12.340;2022-07-06T16:24:39;3.30;;;1.45;;
21621;SDS011;10973;46.706;12.340;2022-07-06T16:27:07;2.45;;;1.80;;
21621;SDS011;10973;46.706;12.340;2022-07-06T16:33:44;1.58;;;1.58;;
21621;SDS011;10973;46.706;12.340;2022-07-06T16:36:11;2.65;;;1.30;;
21621;SDS011;10973;46.706;12.340;2022-07-06T16:46:47;2.00;;;1.90;;
21621;SDS011;10973;46.706;12.340;2022-07-06T16:49:14;2.60;;;2.20;;
21621;SDS011;10973;46.706;12.340;2022-07-06T16:51:42;1.70;;;1.60;;
21621;SDS011;10973;46.706;12.340;2022-07-06T16:54:09;1.80;;;1.70;;
21621;SDS011;10973;46.706;12.340;2022-07-06T17:00:36;2.13;;;2.03;;
21621;SDS011;10973;46.706;12.340;2022-07-06T17:03:03;4.28;;;2.10;;